Time;durP1;ratioP1;P1;durP2;ratioP2;P2;SDS_P1;SDS_P2;PMS_P1;PMS_P2;Temp;Humidity;BMP_temperature;BMP_pressure;BME280_temperature;BME280_humidity;BME280_pressure;Samples;Min_cycle;Max_cycle;Signal;HPM_P1;HPM_P2
2022/11/27 00:02:10;;;;;;;5.60;3.07;;;2.20;97.30;;;;;;5074802;28;20171;-82
2022/11/27 00:04:36;;;;;;;9.13;3.83;;;2.10;97.30;;;;;;5067048;28;20413;-82
2022/11/27 00:07:02;;;;;;;9.40;4.60;;;2.10;97.30;;;;;;5083662;28;20222;-82
2022/11/27 00:09:27;;;;;;;4.20;2.57;;;2.00;97.30;;;;;;5065413;28;20186;-82
2022/11/27 00:11:53;;;;;;;7.90;3.83;;;2.00;97.30;;;;;;5054878;28;20198;-82
2022/11/27 00:14:19;;;;;;;8.93;2.30;;;1.90;97.30;;;;;;5063522;28;20198;-82
2022/11/27 00:16:44;;;;;;;1.93;1.50;;;1.90;97.30;;;;;;5077918;28;20190;-81
2022/11/27 00:19:10;;;;;;;3.57;3.37;;;1.80;97.30;;;;;;5083758;28;20186;-81
2022/11/27 00:21:37;;;;;;;2.60;2.40;;;1.80;97.30;;;;;;5077522;28;20175;-81
2022/11/27 00:24:06;;;;;;;4.77;2.50;;;1.70;97.30;;;;;;5067615;28;20444;-80
2022/11/27 00:26:32;;;;;;;7.00;2.60;;;1.70;97.30;;;;;;5067918;28;20529;-80
2022/11/27 00:28:59;;;;;;;3.97;3.80;;;1.70;97.30;;;;;;5068291;28;20907;-80
2022/11/27 00:31:30;;;;;;;3.63;3.00;;;1.70;97.30;;;;;;5068326;28;20417;-80
2022/11/27 00:33:57;;;;;;;2.57;2.37;;;1.80;97.30;;;;;;5067974;28;20452;-80
2022/11/27 00:36:24;;;;;;;3.30;3.10;;;1.80;97.30;;;;;;5067532;28;20421;-81
2022/11/27 00:38:50;;;;;;;2.93;2.47;;;1.80;97.30;;;;;;5085499;28;20421;-81
2022/11/27 00:41:18;;;;;;;6.53;2.53;;;1.80;97.30;;;;;;5068035;28;20425;-80
2022/11/27 00:43:45;;;;;;;16.73;3.17;;;1.80;97.30;;;;;;5083719;28;20195;-81
2022/11/27 00:46:15;;;;;;;8.87;3.67;;;1.90;97.30;;;;;;5084581;28;20472;-80
2022/11/27 00:48:41;;;;;;;2.97;2.77;;;1.90;97.30;;;;;;5073621;28;20529;-80
2022/11/27 00:51:09;;;;;;;3.83;3.63;;;1.80;97.30;;;;;;5077990;28;20767;-81
2022/11/27 00:53:35;;;;;;;5.47;3.40;;;1.70;97.30;;;;;;5070425;28;20431;-81
2022/11/27 00:56:00;;;;;;;3.00;2.80;;;1.70;97.30;;;;;;5070580;28;20867;-81
2022/11/27 00:58:28;;;;;;;3.20;3.03;;;1.70;97.30;;;;;;5066296;28;20187;-81
2022/11/27 01:00:55;;;;;;;6.73;3.10;;;1.60;97.30;;;;;;5066827;28;20210;-80
2022/11/27 01:03:22;;;;;;;2.37;2.17;;;1.50;97.30;;;;;;5078852;28;20439;-81
2022/11/27 01:05:47;;;;;;;2.27;2.13;;;1.60;97.30;;;;;;5066734;28;20553;-80
2022/11/27 01:08:13;;;;;;;3.90;3.70;;;1.60;97.30;;;;;;5080422;28;20414;-80
2022/11/27 01:10:39;;;;;;;2.23;2.03;;;1.60;97.30;;;;;;5076651;28;20182;-81
2022/11/27 01:13:04;;;;;;;2.23;2.07;;;1.60;97.30;;;;;;5079001;28;20203;-81
2022/11/27 01:15:30;;;;;;;2.23;2.03;;;1.70;97.30;;;;;;5066213;28;20241;-81
2022/11/27 01:17:55;;;;;;;2.67;2.47;;;1.70;97.30;;;;;;5069230;28;20206;-80
2022/11/27 01:20:21;;;;;;;3.43;3.23;;;1.70;97.30;;;;;;5082905;28;20183;-82
2022/11/27 01:22:47;;;;;;;7.13;3.93;;;1.70;97.30;;;;;;5064723;28;20198;-81
2022/11/27 01:25:12;;;;;;;5.13;3.27;;;1.80;97.30;;;;;;5074843;28;20364;-81
2022/11/27 01:27:38;;;;;;;2.00;1.87;;;1.80;97.30;;;;;;5065867;28;20243;-81
2022/11/27 01:30:04;;;;;;;14.30;3.83;;;1.70;97.30;;;;;;5064568;28;20767;-81
2022/11/27 01:32:29;;;;;;;3.37;3.17;;;1.70;97.30;;;;;;5065602;28;20191;-82
2022/11/27 01:34:55;;;;;;;3.93;3.73;;;1.80;97.30;;;;;;5064896;28;20479;-81
2022/11/27 01:37:21;;;;;;;1.97;1.83;;;1.80;97.30;;;;;;5068029;28;20182;-82
2022/11/27 01:39:46;;;;;;;8.87;2.30;;;1.80;97.30;;;;;;5065368;28;20175;-81
2022/11/27 01:42:12;;;;;;;3.27;3.13;;;1.80;97.30;;;;;;5079820;28;20243;-81
2022/11/27 01:44:48;;;;;;;2.90;2.70;;;1.90;97.30;;;;;;5076192;28;20181;-81
2022/11/27 01:47:22;;;;;;;7.80;3.77;;;2.00;97.30;;;;;;5051911;28;20182;-81
2022/11/27 01:49:52;;;;;;;3.20;3.00;;;2.00;97.30;;;;;;5076835;28;20461;-81
2022/11/27 01:52:27;;;;;;;6.73;3.23;;;2.00;97.30;;;;;;5064864;28;20483;-81
2022/11/27 01:55:00;;;;;;;10.60;2.30;;;2.00;97.30;;;;;;5073315;28;20474;-81
2022/11/27 01:57:37;;;;;;;5.63;3.43;;;2.10;97.30;;;;;;5076529;28;20446;-81
2022/11/27 02:00:08;;;;;;;4.47;4.17;;;2.10;97.30;;;;;;5065297;28;20935;-82
2022/11/27 02:02:34;;;;;;;4.13;3.90;;;2.10;97.30;;;;;;5070775;28;20460;-82
2022/11/27 02:04:59;;;;;;;3.27;2.80;;;2.00;97.30;;;;;;5065858;28;20487;-82
2022/11/27 02:07:25;;;;;;;8.60;4.23;;;2.10;97.30;;;;;;5073380;28;20179;-82
2022/11/27 02:09:51;;;;;;;2.30;1.90;;;2.10;97.30;;;;;;5063711;28;20175;-81
2022/11/27 02:12:24;;;;;;;8.50;2.80;;;2.00;97.30;;;;;;5064901;28;20768;-82
2022/11/27 02:15:27;;;;;;;3.73;3.53;;;2.00;97.30;;;;;;5076087;28;20198;-82
2022/11/27 02:18:08;;;;;;;3.17;2.97;;;1.90;97.30;;;;;;5067077;28;20455;-82
2022/11/27 02:20:54;;;;;;;7.40;2.60;;;1.80;97.30;;;;;;5063083;28;20413;-82
2022/11/27 02:23:35;;;;;;;2.73;2.60;;;1.80;97.30;;;;;;5077088;28;20448;-82
2022/11/27 02:26:50;;;;;;;1.90;1.77;;;1.80;97.30;;;;;;5072552;28;20824;-82
2022/11/27 02:29:19;;;;;;;4.27;3.43;;;1.80;97.30;;;;;;5045337;28;20582;-80
2022/11/27 02:32:09;;;;;;;3.10;2.40;;;1.60;97.30;;;;;;5068613;28;20414;-82
2022/11/27 02:34:41;;;;;;;3.37;3.17;;;1.50;97.30;;;;;;5068422;28;20420;-82
2022/11/27 02:37:22;;;;;;;2.50;2.30;;;1.50;97.30;;;;;;5066805;28;20448;-82
2022/11/27 02:39:56;;;;;;;2.67;1.80;;;1.50;97.30;;;;;;5063192;28;20849;-83
2022/11/27 02:42:22;;;;;;;3.10;2.73;;;1.50;97.30;;;;;;5066406;28;20525;-82
2022/11/27 02:44:57;;;;;;;6.07;2.93;;;1.50;97.30;;;;;;5065000;28;20960;-82
2022/11/27 02:47:23;;;;;;;2.27;2.07;;;1.60;97.30;;;;;;5064325;28;20429;-82
2022/11/27 02:49:51;;;;;;;2.00;1.90;;;1.70;97.30;;;;;;5079671;28;20501;-82
2022/11/27 02:52:18;;;;;;;1.10;1.00;;;1.70;97.30;;;;;;5078924;28;20463;-82
2022/11/27 02:54:47;;;;;;;4.67;2.33;;;1.70;97.30;;;;;;5063300;28;20417;-82
2022/11/27 02:57:14;;;;;;;2.73;2.43;;;1.70;97.30;;;;;;5076196;28;20417;-82
2022/11/27 02:59:42;;;;;;;3.60;3.20;;;1.60;97.30;;;;;;5080689;28;21037;-82
2022/11/27 03:02:13;;;;;;;2.70;2.50;;;1.60;97.30;;;;;;5078946;28;20409;-82
2022/11/27 03:04:50;;;;;;;3.97;3.10;;;1.60;97.30;;;;;;5080915;28;20424;-82
2022/11/27 03:07:25;;;;;;;2.63;2.43;;;1.50;97.30;;;;;;5061389;28;20418;-82
2022/11/27 03:09:56;;;;;;;6.67;3.60;;;1.50;97.30;;;;;;5063564;28;20846;-82
2022/11/27 03:12:21;;;;;;;11.47;2.73;;;1.50;97.30;;;;;;5066651;28;20441;-82
2022/11/27 03:14:48;;;;;;;1.67;1.57;;;1.50;97.30;;;;;;5084475;28;20410;-82
2022/11/27 03:17:38;;;;;;;2.93;2.63;;;1.50;97.30;;;;;;5082699;28;20530;-82
2022/11/27 03:20:24;;;;;;;2.50;2.30;;;1.50;97.30;;;;;;5059285;28;20458;-82
2022/11/27 03:22:53;;;;;;;2.37;2.10;;;1.50;97.30;;;;;;5083494;28;20444;-82
2022/11/27 03:25:19;;;;;;;2.90;2.70;;;1.50;97.30;;;;;;5075238;28;20532;-82
2022/11/27 03:27:59;;;;;;;3.70;3.27;;;1.50;97.30;;;;;;5066354;28;20474;-82
2022/11/27 03:30:25;;;;;;;5.10;3.27;;;1.50;97.30;;;;;;5067097;28;20421;-82
2022/11/27 03:32:50;;;;;;;7.40;2.40;;;1.50;97.30;;;;;;5079523;28;20494;-82
2022/11/27 03:35:20;;;;;;;1.87;1.83;;;1.50;97.30;;;;;;5066542;28;20525;-82
2022/11/27 03:37:47;;;;;;;2.73;2.53;;;1.50;97.30;;;;;;5066529;28;20198;-82
2022/11/27 03:40:13;;;;;;;3.30;1.80;;;1.50;97.30;;;;;;5083408;28;20432;-82
2022/11/27 03:42:58;;;;;;;5.87;3.93;;;1.50;97.30;;;;;;5056598;28;20429;-83
2022/11/27 03:45:51;;;;;;;4.53;2.60;;;1.40;97.30;;;;;;5071784;28;20464;-82
2022/11/27 03:48:20;;;;;;;3.33;3.13;;;1.50;97.30;;;;;;5074319;28;20468;-82
2022/11/27 03:51:17;;;;;;;3.77;3.57;;;1.50;97.30;;;;;;5053162;28;20425;-82
2022/11/27 03:53:58;;;;;;;1.73;1.63;;;1.50;97.30;;;;;;5085472;28;20429;-83
2022/11/27 03:56:52;;;;;;;2.53;2.33;;;1.50;97.30;;;;;;5073557;28;20429;-82
2022/11/27 03:59:25;;;;;;;2.73;2.50;;;1.50;97.30;;;;;;5057076;28;20456;-82
2022/11/27 04:01:50;;;;;;;2.87;2.70;;;1.40;97.30;;;;;;5065297;28;20428;-82
2022/11/27 04:04:16;;;;;;;2.97;2.40;;;1.40;97.30;;;;;;5064897;28;20553;-82
2022/11/27 04:06:42;;;;;;;3.90;2.70;;;1.40;97.30;;;;;;5052502;28;20441;-82
2022/11/27 04:09:07;;;;;;;3.33;3.03;;;1.50;97.30;;;;;;5069880;28;20179;-82
2022/11/27 04:11:33;;;;;;;6.43;3.50;;;1.50;97.30;;;;;;5069319;28;20201;-82
2022/11/27 04:13:59;;;;;;;16.27;2.33;;;1.50;97.30;;;;;;5068338;28;20206;-82
2022/11/27 04:16:24;;;;;;;2.90;2.70;;;1.50;97.30;;;;;;5067473;28;20179;-82
2022/11/27 04:18:50;;;;;;;7.33;4.07;;;1.40;97.30;;;;;;5079438;28;20190;-82
2022/11/27 04:21:16;;;;;;;6.30;4.07;;;1.40;97.30;;;;;;5077198;28;20181;-82
2022/11/27 04:23:42;;;;;;;2.30;2.10;;;1.40;97.30;;;;;;5062707;28;20218;-82
2022/11/27 04:26:08;;;;;;;4.27;4.00;;;1.40;97.30;;;;;;5046044;28;20210;-82
2022/11/27 04:28:34;;;;;;;2.30;2.10;;;1.40;97.30;;;;;;5064680;28;20771;-82
2022/11/27 04:30:59;;;;;;;5.10;2.93;;;1.40;97.30;;;;;;5066095;28;20248;-82
2022/11/27 04:33:26;;;;;;;7.30;3.17;;;1.40;97.30;;;;;;5065665;28;20831;-82
2022/11/27 04:35:51;;;;;;;2.07;1.93;;;1.30;97.30;;;;;;5065468;28;20187;-81
2022/11/27 04:38:18;;;;;;;15.53;5.60;;;1.30;97.30;;;;;;5078737;28;20941;-81
2022/11/27 04:40:44;;;;;;;3.17;2.40;;;1.30;97.30;;;;;;5083452;28;20227;-82
2022/11/27 04:43:09;;;;;;;1.90;1.80;;;1.40;97.30;;;;;;5065569;28;20553;-82
2022/11/27 04:45:35;;;;;;;2.30;2.13;;;1.40;97.30;;;;;;5067130;28;20206;-82
2022/11/27 04:48:01;;;;;;;12.20;4.50;;;1.40;97.30;;;;;;5071791;28;20210;-82
2022/11/27 04:50:27;;;;;;;3.20;3.00;;;1.50;97.30;;;;;;5078281;28;20413;-82
2022/11/27 04:52:52;;;;;;;2.93;2.77;;;1.40;97.30;;;;;;5063412;28;20245;-82
2022/11/27 04:55:18;;;;;;;4.20;2.90;;;1.40;97.30;;;;;;5063670;28;20231;-82
2022/11/27 04:57:44;;;;;;;2.23;2.03;;;1.40;97.30;;;;;;5064224;28;20205;-81
2022/11/27 05:00:10;;;;;;;3.93;3.77;;;1.40;97.30;;;;;;5065981;28;20183;-82
2022/11/27 05:02:36;;;;;;;2.23;2.07;;;1.40;97.30;;;;;;5065080;28;20290;-81
2022/11/27 05:05:02;;;;;;;2.53;2.33;;;1.40;97.30;;;;;;5082685;28;20498;-81
2022/11/27 05:07:28;;;;;;;8.80;5.40;;;1.40;97.30;;;;;;5067487;28;20171;-82
2022/11/27 05:09:53;;;;;;;2.87;2.67;;;1.40;97.30;;;;;;5072977;28;20444;-81
2022/11/27 05:12:19;;;;;;;2.77;2.07;;;1.40;97.30;;;;;;5064928;28;20203;-81
2022/11/27 05:14:45;;;;;;;4.20;2.83;;;1.40;97.30;;;;;;5064892;28;20217;-81
2022/11/27 05:17:10;;;;;;;5.63;3.60;;;1.40;97.30;;;;;;5065696;28;20193;-81
2022/11/27 05:19:36;;;;;;;3.23;3.03;;;1.40;97.30;;;;;;5065184;28;20176;-82
2022/11/27 05:22:02;;;;;;;2.70;2.50;;;1.40;97.30;;;;;;5082691;28;20186;-81
2022/11/27 05:24:28;;;;;;;5.43;3.07;;;1.40;97.30;;;;;;5061090;28;20614;-82
2022/11/27 05:26:55;;;;;;;2.37;2.17;;;1.40;97.30;;;;;;5066241;28;20457;-82
2022/11/27 05:29:21;;;;;;;3.30;3.10;;;1.40;97.30;;;;;;5053381;28;20421;-82
2022/11/27 05:31:47;;;;;;;3.93;3.37;;;1.40;97.30;;;;;;5064069;28;20919;-81
2022/11/27 05:34:13;;;;;;;2.83;2.17;;;1.40;97.30;;;;;;5073402;28;20441;-82
2022/11/27 05:36:39;;;;;;;2.40;2.23;;;1.40;97.30;;;;;;5060845;28;20179;-82
2022/11/27 05:39:06;;;;;;;9.20;2.50;;;1.40;97.30;;;;;;5057526;28;20978;-82
2022/11/27 05:41:33;;;;;;;5.97;4.27;;;1.30;97.30;;;;;;5062716;28;20437;-82
2022/11/27 05:43:59;;;;;;;3.43;3.23;;;1.30;97.30;;;;;;5060959;28;20437;-82
2022/11/27 05:46:25;;;;;;;7.30;3.20;;;1.30;97.30;;;;;;5076232;28;20460;-82
2022/11/27 05:48:50;;;;;;;3.27;2.40;;;1.30;97.30;;;;;;5064776;28;20264;-81
2022/11/27 05:51:16;;;;;;;4.40;2.53;;;1.30;97.30;;;;;;5066439;28;20185;-82
2022/11/27 05:53:42;;;;;;;3.17;1.77;;;1.30;97.30;;;;;;5069124;28;20274;-82
2022/11/27 05:56:10;;;;;;;4.43;2.00;;;1.30;97.30;;;;;;5074182;28;20501;-82
2022/11/27 05:58:37;;;;;;;2.87;2.67;;;1.20;97.30;;;;;;5065554;28;20193;-82
2022/11/27 06:01:04;;;;;;;6.40;3.00;;;1.10;97.30;;;;;;5063992;28;20462;-81
2022/11/27 06:03:30;;;;;;;3.07;2.87;;;1.10;97.30;;;;;;5059472;28;21246;-81
2022/11/27 06:05:56;;;;;;;2.80;2.50;;;1.00;97.30;;;;;;5065157;28;20497;-81
2022/11/27 06:08:21;;;;;;;3.73;3.53;;;1.00;97.30;;;;;;5061085;28;20203;-82
2022/11/27 06:10:47;;;;;;;2.73;2.60;;;1.10;97.30;;;;;;5073065;28;20175;-81
2022/11/27 06:13:13;;;;;;;6.57;5.10;;;1.10;97.30;;;;;;5074755;28;20449;-81
2022/11/27 06:15:40;;;;;;;3.93;2.57;;;1.10;97.30;;;;;;5073190;28;20464;-82
2022/11/27 06:18:06;;;;;;;4.60;2.27;;;1.10;97.30;;;;;;5054917;28;20421;-81
2022/11/27 06:20:32;;;;;;;3.43;3.23;;;1.10;97.30;;;;;;5060006;28;20508;-82
2022/11/27 06:22:58;;;;;;;4.33;2.93;;;1.10;97.30;;;;;;5060676;28;20515;-82
2022/11/27 06:25:25;;;;;;;2.63;2.30;;;1.20;97.30;;;;;;5063037;28;20199;-82
2022/11/27 06:27:51;;;;;;;2.30;1.73;;;1.20;97.30;;;;;;5061996;28;20186;-82
2022/11/27 06:30:17;;;;;;;3.17;2.20;;;1.10;97.30;;;;;;5065452;28;20423;-81
2022/11/27 06:32:42;;;;;;;4.50;3.50;;;1.10;97.30;;;;;;5063022;28;20498;-82
2022/11/27 06:35:08;;;;;;;6.50;2.37;;;1.10;97.30;;;;;;5063062;28;20429;-82
2022/11/27 06:37:34;;;;;;;7.43;4.87;;;1.10;97.30;;;;;;5065588;28;20179;-82
2022/11/27 06:39:59;;;;;;;2.30;1.93;;;1.10;97.30;;;;;;5062418;28;20273;-82
2022/11/27 06:42:29;;;;;;;2.30;2.10;;;1.10;97.30;;;;;;5064243;28;20202;-82
2022/11/27 06:44:54;;;;;;;11.70;2.53;;;1.20;97.30;;;;;;5060096;28;20875;-82
2022/11/27 06:47:20;;;;;;;6.80;3.23;;;1.20;97.30;;;;;;5064528;28;20469;-82
2022/11/27 06:49:45;;;;;;;5.17;2.37;;;1.10;97.30;;;;;;5062234;28;20227;-82
2022/11/27 06:52:11;;;;;;;2.03;1.90;;;1.00;97.30;;;;;;5065231;28;20270;-82
2022/11/27 06:54:36;;;;;;;3.87;3.17;;;1.00;97.30;;;;;;5066013;28;20251;-82
2022/11/27 06:57:02;;;;;;;4.03;2.40;;;0.90;97.30;;;;;;5063610;28;20182;-82
2022/11/27 06:59:28;;;;;;;1.20;1.10;;;0.90;97.30;;;;;;5058986;28;20176;-81
2022/11/27 07:01:53;;;;;;;2.47;2.33;;;0.90;97.30;;;;;;5070324;28;20221;-82
2022/11/27 07:04:19;;;;;;;4.67;2.27;;;0.90;97.30;;;;;;5071446;28;20203;-82
2022/11/27 07:06:45;;;;;;;5.13;3.80;;;0.90;97.30;;;;;;5053567;28;20209;-81
2022/11/27 07:09:10;;;;;;;2.60;2.40;;;0.90;97.30;;;;;;5061953;28;20175;-81
2022/11/27 07:11:38;;;;;;;7.37;3.33;;;1.00;97.30;;;;;;5063862;28;20175;-81
2022/11/27 07:14:04;;;;;;;6.27;3.00;;;1.00;97.30;;;;;;5068645;28;20202;-81
2022/11/27 07:16:32;;;;;;;4.20;3.93;;;1.00;97.30;;;;;;5061982;28;20425;-81
2022/11/27 07:19:01;;;;;;;7.73;4.10;;;1.10;97.30;;;;;;5062813;28;20424;-81
2022/11/27 07:21:27;;;;;;;4.60;2.97;;;1.10;97.30;;;;;;5068493;28;20422;-82
2022/11/27 07:23:55;;;;;;;3.67;3.47;;;1.20;97.30;;;;;;5057480;28;20434;-82
2022/11/27 07:26:26;;;;;;;5.33;3.87;;;1.20;97.30;;;;;;5061872;28;20552;-81
2022/11/27 07:28:51;;;;;;;2.40;2.20;;;1.30;97.30;;;;;;5055024;28;20862;-80
2022/11/27 07:31:20;;;;;;;3.23;3.03;;;1.30;97.30;;;;;;5069489;28;20454;-81
2022/11/27 07:33:46;;;;;;;3.63;2.63;;;1.40;97.30;;;;;;5046484;28;20442;-81
2022/11/27 07:36:15;;;;;;;2.50;2.30;;;1.40;97.30;;;;;;5045910;28;20429;-81
2022/11/27 07:38:42;;;;;;;11.23;5.13;;;1.50;97.30;;;;;;5054005;28;20443;-81
2022/11/27 07:41:08;;;;;;;2.40;2.23;;;1.50;97.30;;;;;;5053597;28;20415;-81
2022/11/27 07:43:34;;;;;;;3.93;3.20;;;1.60;97.30;;;;;;5056303;28;20814;-82
2022/11/27 07:46:04;;;;;;;9.60;4.20;;;1.60;97.30;;;;;;5071434;28;20206;-81
2022/11/27 07:48:30;;;;;;;9.17;3.10;;;1.60;97.30;;;;;;5060432;28;20461;-81
2022/11/27 07:50:56;;;;;;;3.00;2.80;;;1.60;97.30;;;;;;5056203;28;20496;-81
2022/11/27 07:53:21;;;;;;;4.07;2.13;;;1.60;97.30;;;;;;5061429;28;20488;-81
2022/11/27 07:55:47;;;;;;;5.20;3.30;;;1.70;97.30;;;;;;5073168;28;20194;-82
2022/11/27 07:58:13;;;;;;;3.23;2.93;;;1.80;97.30;;;;;;5066159;28;20229;-81
2022/11/27 08:00:38;;;;;;;3.73;2.30;;;1.80;97.30;;;;;;5066314;28;20277;-82
2022/11/27 08:03:04;;;;;;;2.37;2.17;;;1.90;97.30;;;;;;5066790;28;20206;-82
2022/11/27 08:05:34;;;;;;;3.37;3.00;;;1.90;97.30;;;;;;5058556;28;20207;-81
2022/11/27 08:08:02;;;;;;;3.70;2.03;;;2.00;97.30;;;;;;5062136;28;20193;-81
2022/11/27 08:10:38;;;;;;;5.03;1.70;;;2.10;97.30;;;;;;5063969;28;20418;-81
2022/11/27 08:13:05;;;;;;;4.20;3.07;;;2.20;97.30;;;;;;5065915;28;20465;-81
2022/11/27 08:15:31;;;;;;;2.83;2.63;;;2.20;97.30;;;;;;5064168;28;20947;-81
2022/11/27 08:17:57;;;;;;;5.80;2.30;;;2.30;97.30;;;;;;5064291;28;20421;-81
2022/11/27 08:20:23;;;;;;;11.90;2.03;;;2.30;97.30;;;;;;5064450;28;20421;-81
2022/11/27 08:22:48;;;;;;;3.73;2.83;;;2.40;97.30;;;;;;5059528;28;20436;-81
2022/11/27 08:25:14;;;;;;;1.70;1.60;;;2.50;97.30;;;;;;5095700;28;20421;-81
2022/11/27 08:27:40;;;;;;;3.20;2.50;;;2.60;97.30;;;;;;5062111;28;20179;-81
2022/11/27 08:30:06;;;;;;;1.87;1.80;;;2.70;97.30;;;;;;5065654;28;20175;-81
2022/11/27 08:32:32;;;;;;;6.00;3.30;;;2.80;97.30;;;;;;5066584;28;20223;-81
2022/11/27 08:35:01;;;;;;;4.70;2.37;;;2.90;97.30;;;;;;5065962;28;20428;-81
2022/11/27 08:37:27;;;;;;;2.20;1.80;;;3.00;97.30;;;;;;5054781;28;20426;-81
2022/11/27 08:39:52;;;;;;;32.13;5.93;;;3.10;97.30;;;;;;5050722;28;20442;-81
2022/11/27 08:42:18;;;;;;;1.70;1.60;;;3.10;97.30;;;;;;5071884;28;20703;-81
2022/11/27 08:44:44;;;;;;;1.77;1.67;;;3.20;97.30;;;;;;5068175;28;20712;-81
2022/11/27 08:47:09;;;;;;;2.00;1.83;;;3.30;97.30;;;;;;5065560;28;20206;-81
2022/11/27 08:49:35;;;;;;;4.90;2.57;;;3.30;97.30;;;;;;5074355;28;20251;-82
2022/11/27 08:52:00;;;;;;;4.70;3.40;;;3.40;97.30;;;;;;5077472;28;20194;-81
2022/11/27 08:54:26;;;;;;;7.33;4.60;;;3.50;97.30;;;;;;5069348;28;20321;-81
2022/11/27 08:56:52;;;;;;;7.73;2.40;;;3.50;97.30;;;;;;5083072;28;20198;-82
2022/11/27 08:59:18;;;;;;;5.30;4.07;;;3.60;97.30;;;;;;5071713;28;20187;-82
2022/11/27 09:01:43;;;;;;;6.83;2.87;;;3.70;97.30;;;;;;5070721;28;20179;-82
2022/11/27 09:04:09;;;;;;;4.40;2.93;;;3.80;97.30;;;;;;5064265;28;20482;-82
2022/11/27 09:06:35;;;;;;;2.37;2.20;;;3.80;97.30;;;;;;5070865;28;20257;-82
2022/11/27 09:09:03;;;;;;;3.83;1.63;;;3.90;97.30;;;;;;5057886;28;20198;-83
2022/11/27 09:11:30;;;;;;;3.53;3.33;;;4.00;97.30;;;;;;5061603;28;20179;-82
2022/11/27 09:13:58;;;;;;;3.63;2.70;;;4.00;97.30;;;;;;5068345;28;20961;-82
2022/11/27 09:16:23;;;;;;;1.60;1.50;;;4.10;97.30;;;;;;5063484;28;20441;-82
2022/11/27 09:18:51;;;;;;;5.00;2.87;;;4.20;97.30;;;;;;5064034;28;20413;-82
2022/11/27 09:21:19;;;;;;;1.27;1.20;;;4.30;97.30;;;;;;5064400;28;20645;-82
2022/11/27 09:23:45;;;;;;;2.63;2.43;;;4.40;97.30;;;;;;5081443;28;20441;-82
2022/11/27 09:26:14;;;;;;;2.60;2.00;;;4.40;97.30;;;;;;5063359;28;20449;-82
2022/11/27 09:28:41;;;;;;;7.10;2.93;;;4.50;97.30;;;;;;5061699;28;20172;-81
2022/11/27 09:31:09;;;;;;;2.27;1.97;;;4.50;97.30;;;;;;5068106;28;20435;-82
2022/11/27 09:33:36;;;;;;;6.83;3.90;;;4.60;97.30;;;;;;5071969;28;20442;-82
2022/11/27 09:36:28;;;;;;;2.53;2.33;;;4.70;97.30;;;;;;5061992;28;20842;-82
2022/11/27 09:38:54;;;;;;;3.83;3.37;;;4.80;97.30;;;;;;5064105;28;20509;-82
2022/11/27 09:41:38;;;;;;;2.40;1.90;;;4.80;97.30;;;;;;5055431;28;20700;-81
2022/11/27 09:44:15;;;;;;;1.97;1.77;;;4.90;97.30;;;;;;5055960;28;20596;-82
2022/11/27 09:46:42;;;;;;;11.33;3.60;;;5.00;97.30;;;;;;5056186;28;20515;-82
2022/11/27 09:49:13;;;;;;;7.33;2.53;;;5.10;97.30;;;;;;5061270;28;20480;-82
2022/11/27 09:51:44;;;;;;;1.87;1.77;;;5.20;97.30;;;;;;5033581;28;20429;-82
2022/11/27 09:54:21;;;;;;;3.23;1.93;;;5.30;97.30;;;;;;5055357;28;21531;-82
2022/11/27 09:56:50;;;;;;;1.97;1.87;;;5.40;97.30;;;;;;5059657;28;20934;-82
2022/11/27 09:59:19;;;;;;;1.97;1.87;;;5.40;97.30;;;;;;5061427;28;20443;-82
2022/11/27 10:01:45;;;;;;;1.87;1.77;;;5.50;97.30;;;;;;5066632;28;20426;-82
2022/11/27 10:04:13;;;;;;;4.97;2.40;;;5.60;97.30;;;;;;5074616;28;20452;-82
2022/11/27 10:06:58;;;;;;;4.23;1.93;;;5.60;97.30;;;;;;5046255;28;20207;-83
2022/11/27 10:09:46;;;;;;;12.27;3.57;;;5.70;97.30;;;;;;5047892;28;20452;-82
2022/11/27 10:12:29;;;;;;;8.60;1.40;;;5.70;97.30;;;;;;5060277;28;20487;-82
2022/11/27 10:15:17;;;;;;;5.73;2.40;;;5.90;97.30;;;;;;5052998;28;20783;-82
2022/11/27 10:18:09;;;;;;;2.97;2.80;;;6.00;97.30;;;;;;5068061;28;20441;-82
2022/11/27 10:20:49;;;;;;;1.43;1.40;;;6.10;97.30;;;;;;5031061;28;21092;-82
2022/11/27 10:23:37;;;;;;;2.50;2.13;;;6.20;97.30;;;;;;5051337;28;20444;-82
2022/11/27 10:26:13;;;;;;;5.33;2.17;;;6.20;97.30;;;;;;5053065;28;20475;-82
2022/11/27 10:28:53;;;;;;;2.60;2.07;;;6.30;97.30;;;;;;5060551;28;20926;-82
2022/11/27 10:31:40;;;;;;;4.80;2.63;;;6.40;97.30;;;;;;5061165;28;20415;-82
2022/11/27 10:34:37;;;;;;;1.77;1.67;;;6.50;97.30;;;;;;5058553;28;20487;-82
2022/11/27 10:37:27;;;;;;;1.60;1.50;;;6.80;97.30;;;;;;5064570;28;20412;-83
2022/11/27 10:39:57;;;;;;;3.00;2.57;;;6.90;97.30;;;;;;5059824;28;20445;-82
2022/11/27 10:42:50;;;;;;;2.63;2.50;;;7.00;97.30;;;;;;5060087;28;20445;-82
2022/11/27 10:45:46;;;;;;;2.50;1.50;;;7.10;97.30;;;;;;5049842;28;20452;-82
2022/11/27 10:48:13;;;;;;;2.30;2.13;;;7.20;97.30;;;;;;5055709;28;20733;-82
2022/11/27 10:50:40;;;;;;;2.40;2.20;;;7.30;97.30;;;;;;5061295;28;20417;-82
2022/11/27 10:53:09;;;;;;;3.63;3.43;;;7.40;97.30;;;;;;5060264;28;20437;-82
2022/11/27 10:56:17;;;;;;;2.77;2.03;;;7.50;97.30;;;;;;5058890;28;20441;-82
2022/11/27 10:58:49;;;;;;;2.40;1.63;;;7.60;97.30;;;;;;5058250;28;20508;-83
2022/11/27 11:01:20;;;;;;;2.83;2.23;;;7.70;97.30;;;;;;5048003;28;20460;-82
2022/11/27 11:03:46;;;;;;;1.70;1.60;;;7.80;97.30;;;;;;5057200;28;20464;-82
2022/11/27 11:06:20;;;;;;;7.80;3.60;;;7.90;97.30;;;;;;5053572;28;20986;-82
2022/11/27 11:08:46;;;;;;;4.37;2.00;;;7.90;97.30;;;;;;5060283;28;20414;-82
2022/11/27 11:11:12;;;;;;;2.90;1.63;;;7.90;97.30;;;;;;5067124;28;20844;-81
2022/11/27 11:13:40;;;;;;;1.53;1.43;;;7.80;97.30;;;;;;5060723;28;20203;-81
2022/11/27 11:16:17;;;;;;;2.77;2.57;;;7.70;97.30;;;;;;5059676;28;20417;-82
2022/11/27 11:18:54;;;;;;;1.87;1.43;;;7.50;97.30;;;;;;5060188;28;20749;-81
2022/11/27 11:21:30;;;;;;;1.40;1.30;;;7.50;97.30;;;;;;5066726;28;20424;-82
2022/11/27 11:24:00;;;;;;;1.90;1.80;;;7.40;97.30;;;;;;5060818;28;20589;-81
2022/11/27 11:26:29;;;;;;;2.23;1.97;;;7.40;97.30;;;;;;5060473;28;20472;-82
2022/11/27 11:28:58;;;;;;;3.60;1.97;;;7.50;97.30;;;;;;5078541;28;20420;-82
2022/11/27 11:31:36;;;;;;;2.03;1.90;;;7.70;97.30;;;;;;5069394;28;20788;-80
2022/11/27 11:34:06;;;;;;;3.17;2.83;;;8.00;97.30;;;;;;5065171;28;20432;-82
2022/11/27 11:36:32;;;;;;;2.90;2.73;;;8.20;97.30;;;;;;5078548;28;20424;-82
2022/11/27 11:38:58;;;;;;;2.20;1.53;;;8.50;97.30;;;;;;5064492;28;20439;-82
2022/11/27 11:41:34;;;;;;;1.87;1.77;;;8.60;97.30;;;;;;5064797;28;20413;-81
2022/11/27 11:44:01;;;;;;;3.80;2.10;;;8.80;97.30;;;;;;5066321;28;20430;-81
2022/11/27 11:46:32;;;;;;;1.60;1.50;;;9.00;97.30;;;;;;5067396;28;20483;-81
2022/11/27 11:49:03;;;;;;;3.53;2.00;;;9.20;97.30;;;;;;5063816;28;20524;-82
2022/11/27 11:51:41;;;;;;;3.93;2.67;;;9.40;97.30;;;;;;5058863;28;20413;-83
2022/11/27 11:54:15;;;;;;;2.20;1.73;;;9.50;97.30;;;;;;5078579;28;20449;-82
2022/11/27 11:56:48;;;;;;;21.43;3.33;;;9.70;97.30;;;;;;5053253;28;20938;-82
2022/11/27 11:59:19;;;;;;;3.70;2.10;;;9.90;97.30;;;;;;5062882;28;20413;-81
2022/11/27 12:01:58;;;;;;;2.37;2.20;;;10.00;97.30;;;;;;5067550;28;20452;-82
2022/11/27 12:04:38;;;;;;;9.40;2.00;;;10.00;96.60;;;;;;5060707;28;20468;-82
2022/11/27 12:07:29;;;;;;;1.80;1.60;;;10.10;96.50;;;;;;5059799;28;20460;-82
2022/11/27 12:10:03;;;;;;;6.23;2.70;;;10.20;96.70;;;;;;5046678;28;20446;-81
2022/11/27 12:12:44;;;;;;;4.83;1.90;;;10.40;96.00;;;;;;5061985;28;20448;-82
2022/11/27 12:15:33;;;;;;;2.20;1.80;;;10.40;95.90;;;;;;5062979;28;20421;-82
2022/11/27 12:18:21;;;;;;;6.37;2.73;;;10.40;95.70;;;;;;5056020;28;20451;-81
2022/11/27 12:21:05;;;;;;;19.53;3.20;;;10.40;95.50;;;;;;5076040;28;20416;-82
2022/11/27 12:23:52;;;;;;;3.90;2.50;;;10.50;95.80;;;;;;5063201;28;20722;-80
2022/11/27 12:26:22;;;;;;;1.73;1.67;;;10.60;95.60;;;;;;5054344;28;20485;-82
2022/11/27 12:29:06;;;;;;;1.37;1.27;;;10.80;95.50;;;;;;5054586;28;20460;-81
2022/11/27 12:32:01;;;;;;;3.37;2.40;;;10.80;95.50;;;;;;5062696;28;20795;-82
2022/11/27 12:34:42;;;;;;;3.43;2.67;;;10.90;95.40;;;;;;5023573;28;20947;-82
2022/11/27 12:37:29;;;;;;;2.40;1.97;;;10.90;94.60;;;;;;5050890;28;20429;-82
2022/11/27 12:40:21;;;;;;;1.87;1.47;;;10.90;95.10;;;;;;5066266;28;20877;-82
2022/11/27 12:43:15;;;;;;;4.77;1.90;;;11.00;94.90;;;;;;5060234;28;20433;-82
2022/11/27 12:45:46;;;;;;;2.87;2.40;;;10.80;94.20;;;;;;5073701;28;20486;-82
2022/11/27 12:48:23;;;;;;;2.47;2.33;;;10.60;94.70;;;;;;5048553;28;20815;-82
2022/11/27 12:51:10;;;;;;;2.57;2.37;;;10.50;94.90;;;;;;5060958;28;20425;-82
2022/11/27 12:53:47;;;;;;;2.77;2.40;;;10.50;95.00;;;;;;5061354;28;20463;-82
2022/11/27 12:56:31;;;;;;;5.93;2.50;;;10.50;95.00;;;;;;5060128;28;20421;-82
2022/11/27 12:59:29;;;;;;;2.37;2.17;;;10.60;94.90;;;;;;5062218;28;20424;-82
2022/11/27 13:02:09;;;;;;;3.17;1.90;;;10.70;94.90;;;;;;5051662;28;20449;-83
2022/11/27 13:04:52;;;;;;;4.80;2.37;;;10.60;94.70;;;;;;5058165;28;20433;-82
2022/11/27 13:07:37;;;;;;;3.07;2.93;;;10.60;95.00;;;;;;5061501;28;20587;-82
2022/11/27 13:10:21;;;;;;;2.20;2.03;;;10.60;94.90;;;;;;5058568;28;20422;-82
2022/11/27 13:13:15;;;;;;;2.43;2.23;;;10.60;95.10;;;;;;5079638;28;20437;-82
2022/11/27 13:16:18;;;;;;;4.40;1.67;;;10.60;94.70;;;;;;5062533;28;20420;-82